Time;durP1;ratioP1;P1;durP2;ratioP2;P2;SDS_P1;SDS_P2;PMS_P1;PMS_P2;Temp;Humidity;BMP_temperature;BMP_pressure;BME280_temperature;BME280_humidity;BME280_pressure;Samples;Min_cycle;Max_cycle;Signal;HPM_P1;HPM_P2
2022/07/24 00:00:04;;;;;;;13.02;8.85;;;25.60;55.30;;;;;;7367658;19;20106;-77
2022/07/24 00:02:33;;;;;;;12.77;9.30;;;25.60;55.30;;;;;;7369466;19;20037;-77
2022/07/24 00:05:02;;;;;;;11.65;9.25;;;25.60;55.20;;;;;;7368158;19;20433;-77
2022/07/24 00:07:34;;;;;;;14.65;8.98;;;25.50;55.20;;;;;;7366873;19;20471;-76
2022/07/24 00:10:03;;;;;;;11.25;8.63;;;25.50;55.20;;;;;;7366918;19;20359;-77
2022/07/24 00:12:32;;;;;;;10.45;8.45;;;25.50;55.10;;;;;;7391154;19;20023;-77
2022/07/24 00:15:01;;;;;;;16.98;8.60;;;25.50;55.10;;;;;;7369339;19;20122;-77
2022/07/24 00:17:30;;;;;;;13.05;8.60;;;25.50;55.20;;;;;;7368995;19;20014;-77
2022/07/24 00:19:58;;;;;;;14.50;8.38;;;25.50;55.20;;;;;;7367933;19;20018;-77
2022/07/24 00:22:27;;;;;;;12.35;8.93;;;25.50;55.40;;;;;;7369961;19;20014;-77
2022/07/24 00:24:59;;;;;;;12.48;8.40;;;25.40;55.40;;;;;;7373568;19;20081;-77
2022/07/24 00:27:27;;;;;;;12.50;7.97;;;25.40;55.60;;;;;;7394942;19;20343;-77
2022/07/24 00:29:56;;;;;;;14.07;7.88;;;25.40;55.40;;;;;;7374130;19;20015;-77
2022/07/24 00:32:25;;;;;;;13.05;8.80;;;25.40;55.60;;;;;;7374487;19;20018;-77
2022/07/24 00:34:53;;;;;;;15.77;8.02;;;25.30;55.60;;;;;;7375405;19;20086;-77
2022/07/24 00:37:22;;;;;;;14.45;8.80;;;25.30;55.40;;;;;;7374247;19;20710;-77
2022/07/24 00:39:51;;;;;;;14.15;8.98;;;25.30;55.40;;;;;;7374726;19;20969;-76
2022/07/24 00:42:23;;;;;;;13.43;8.75;;;25.30;55.70;;;;;;7395608;19;20314;-77
2022/07/24 00:44:51;;;;;;;;;;;25.30;55.80;;;;;;7375683;19;20089;-77
2022/07/24 00:47:20;;;;;;;15.18;8.77;;;25.30;55.90;;;;;;7374145;19;20361;-77
2022/07/24 00:49:49;;;;;;;14.52;8.85;;;25.20;55.80;;;;;;7375845;19;20044;-76
2022/07/24 00:52:17;;;;;;;15.30;8.57;;;25.20;55.80;;;;;;7376569;19;20077;-77
2022/07/24 00:54:47;;;;;;;12.90;8.55;;;25.20;55.80;;;;;;7376575;19;20025;-76
2022/07/24 00:57:15;;;;;;;9.73;7.68;;;25.20;55.60;;;;;;7397010;19;20450;-76
2022/07/24 00:59:47;;;;;;;11.05;8.38;;;25.20;55.50;;;;;;7373552;19;20450;-76
2022/07/24 01:02:15;;;;;;;;;;;25.10;55.50;;;;;;7373613;19;20074;-76
2022/07/24 01:04:44;;;;;;;12.88;8.45;;;25.20;55.80;;;;;;7374066;19;19929;-76
2022/07/24 01:07:13;;;;;;;12.98;8.70;;;25.10;55.80;;;;;;7375336;19;20013;-76
2022/07/24 01:09:42;;;;;;;14.23;8.82;;;25.10;55.90;;;;;;7374038;19;20018;-77
2022/07/24 01:12:12;;;;;;;14.18;8.57;;;25.00;56.10;;;;;;7393713;19;20060;-76
2022/07/24 01:14:41;;;;;;;11.15;8.15;;;25.00;56.20;;;;;;7374932;19;20090;-76
2022/07/24 01:17:12;;;;;;;14.90;9.13;;;25.00;56.00;;;;;;7372522;19;20015;-76
2022/07/24 01:19:41;;;;;;;14.90;8.85;;;24.90;56.00;;;;;;7372480;19;20104;-76
2022/07/24 01:22:12;;;;;;;14.93;8.63;;;25.00;56.10;;;;;;7368771;19;20085;-75
2022/07/24 01:24:41;;;;;;;12.50;8.75;;;25.00;55.90;;;;;;7373844;19;20509;-75
2022/07/24 01:27:10;;;;;;;15.02;9.30;;;24.90;55.90;;;;;;7395133;19;20022;-75
2022/07/24 01:29:39;;;;;;;17.25;9.10;;;24.90;55.90;;;;;;7369501;19;20018;-75
2022/07/24 01:32:08;;;;;;;16.13;9.25;;;25.00;56.10;;;;;;7373881;19;20401;-75
2022/07/24 01:34:37;;;;;;;13.75;8.55;;;24.90;56.10;;;;;;7370625;19;20025;-75
2022/07/24 01:37:06;;;;;;;12.95;8.82;;;24.90;56.10;;;;;;7369123;19;20098;-76
2022/07/24 01:39:38;;;;;;;11.35;8.50;;;24.90;56.10;;;;;;7389727;19;20014;-75
2022/07/24 01:42:07;;;;;;;13.55;8.57;;;24.90;56.30;;;;;;7371861;19;20078;-75
2022/07/24 01:44:35;;;;;;;11.95;8.38;;;24.90;56.20;;;;;;7372928;19;20391;-75
2022/07/24 01:47:04;;;;;;;15.23;8.65;;;24.90;56.30;;;;;;7370060;19;20452;-76
2022/07/24 01:49:33;;;;;;;14.10;8.75;;;24.80;56.50;;;;;;7369684;19;20015;-76
2022/07/24 01:52:02;;;;;;;12.68;8.90;;;24.70;56.30;;;;;;7372154;19;20090;-76
2022/07/24 01:54:30;;;;;;;14.98;8.95;;;24.70;56.20;;;;;;7392576;19;20505;-75
2022/07/24 01:57:02;;;;;;;11.02;8.85;;;24.70;56.30;;;;;;7370729;19;20085;-75
2022/07/24 01:59:30;;;;;;;12.23;8.85;;;24.70;56.40;;;;;;7369824;19;20114;-76
2022/07/24 02:01:59;;;;;;;14.50;8.50;;;24.70;56.40;;;;;;7371517;19;20097;-75
2022/07/24 02:04:28;;;;;;;16.85;8.88;;;24.70;56.50;;;;;;7371296;19;20098;-75
2022/07/24 02:06:57;;;;;;;14.38;8.52;;;24.70;56.50;;;;;;7371971;19;20023;-75
2022/07/24 02:09:25;;;;;;;12.07;8.50;;;24.70;56.50;;;;;;7392425;19;20022;-75
2022/07/24 02:11:54;;;;;;;16.35;8.95;;;24.60;56.60;;;;;;7369987;19;20025;-75
2022/07/24 02:14:26;;;;;;;16.40;8.63;;;24.60;56.70;;;;;;7369368;19;20105;-75
2022/07/24 02:16:54;;;;;;;10.35;8.70;;;24.60;56.80;;;;;;7373518;19;20018;-74
2022/07/24 02:19:24;;;;;;;12.63;8.20;;;24.60;56.60;;;;;;7372281;19;20102;-74
2022/07/24 02:21:53;;;;;;;16.30;8.55;;;24.60;56.10;;;;;;7370398;19;20017;-75
2022/07/24 02:24:21;;;;;;;13.60;8.88;;;24.60;56.20;;;;;;7391292;19;20090;-75
2022/07/24 02:26:50;;;;;;;12.25;8.75;;;24.60;56.50;;;;;;7367692;19;20018;-75
2022/07/24 02:29:19;;;;;;;15.25;8.63;;;24.60;56.40;;;;;;7370687;19;20018;-75
2022/07/24 02:31:51;;;;;;;12.90;8.50;;;24.60;57.20;;;;;;7370284;19;20620;-75
2022/07/24 02:34:19;;;;;;;;;;;24.50;56.80;;;;;;7369499;19;20618;-75
2022/07/24 02:36:48;;;;;;;19.35;9.63;;;24.60;56.80;;;;;;7370502;19;19935;-76
2022/07/24 02:39:16;;;;;;;10.32;8.52;;;24.50;56.80;;;;;;7393303;19;20014;-75
2022/07/24 02:41:45;;;;;;;18.23;8.70;;;24.40;56.50;;;;;;7371433;19;20027;-75
2022/07/24 02:44:16;;;;;;;18.23;8.68;;;24.40;56.40;;;;;;7370865;19;20117;-75
2022/07/24 02:46:44;;;;;;;11.90;8.63;;;24.40;56.60;;;;;;7366823;19;20018;-75
2022/07/24 02:49:16;;;;;;;13.10;8.07;;;24.30;57.40;;;;;;7369710;19;20481;-75
2022/07/24 02:51:44;;;;;;;;;;;24.30;56.60;;;;;;7370283;19;20018;-75
2022/07/24 02:54:13;;;;;;;13.05;8.48;;;24.40;56.80;;;;;;7394601;19;19921;-75
2022/07/24 02:56:42;;;;;;;10.70;8.63;;;24.30;56.50;;;;;;7369061;19;20011;-75
2022/07/24 02:59:10;;;;;;;13.40;7.88;;;24.30;56.40;;;;;;7370993;19;20035;-75
2022/07/24 03:01:39;;;;;;;10.80;8.55;;;24.30;56.50;;;;;;7370615;19;20031;-75
2022/07/24 03:04:08;;;;;;;17.27;8.98;;;24.20;57.00;;;;;;7370147;19;20027;-75
2022/07/24 03:06:39;;;;;;;14.13;8.88;;;24.30;56.60;;;;;;7390678;19;20037;-75
2022/07/24 03:09:08;;;;;;;;;;;24.20;56.80;;;;;;7370470;19;20125;-75
2022/07/24 03:11:36;;;;;;;14.77;9.05;;;24.30;56.90;;;;;;7369403;19;19918;-75
2022/07/24 03:14:05;;;;;;;12.55;9.23;;;24.30;56.70;;;;;;7370904;19;20011;-75
2022/07/24 03:16:34;;;;;;;10.00;8.60;;;24.20;56.60;;;;;;7370910;19;20027;-75
2022/07/24 03:19:03;;;;;;;11.23;8.50;;;24.20;56.70;;;;;;7368735;19;20014;-75
2022/07/24 03:21:31;;;;;;;13.68;8.52;;;24.20;56.70;;;;;;7387081;19;20380;-75
2022/07/24 03:24:03;;;;;;;16.95;9.23;;;24.10;56.60;;;;;;7371785;19;20038;-75
2022/07/24 03:26:32;;;;;;;15.75;9.38;;;24.10;56.60;;;;;;7367732;19;20440;-75
2022/07/24 03:29:01;;;;;;;12.30;9.70;;;24.10;56.60;;;;;;7367194;19;20112;-76
2022/07/24 03:31:30;;;;;;;15.98;8.93;;;24.00;56.70;;;;;;7369502;19;20081;-75
2022/07/24 03:33:58;;;;;;;13.00;8.90;;;24.00;56.60;;;;;;7371765;19;20025;-76
2022/07/24 03:36:27;;;;;;;15.55;8.93;;;24.00;56.70;;;;;;7391167;19;20033;-76
2022/07/24 03:38:56;;;;;;;12.68;9.43;;;24.00;56.80;;;;;;7369633;19;20014;-75
2022/07/24 03:41:27;;;;;;;11.43;8.82;;;24.00;57.00;;;;;;7371071;19;20015;-76
2022/07/24 03:43:55;;;;;;;;;;;24.00;57.10;;;;;;7369980;19;20014;-75
2022/07/24 03:46:24;;;;;;;11.57;8.77;;;24.00;57.10;;;;;;7367624;19;19917;-75
2022/07/24 03:48:53;;;;;;;14.15;9.25;;;24.00;56.90;;;;;;7369282;19;20358;-76
2022/07/24 03:51:22;;;;;;;14.27;9.52;;;23.90;57.00;;;;;;7389826;19;20086;-75
2022/07/24 03:53:51;;;;;;;19.50;8.80;;;24.00;56.90;;;;;;7369059;19;20387;-75
2022/07/24 03:56:20;;;;;;;13.75;8.85;;;23.90;56.80;;;;;;7370617;19;20019;-75
2022/07/24 03:58:51;;;;;;;13.57;9.10;;;23.90;56.90;;;;;;7366986;19;20017;-75
2022/07/24 04:01:19;;;;;;;;;;;23.90;56.90;;;;;;7368209;19;20015;-75
2022/07/24 04:03:48;;;;;;;13.23;9.07;;;23.90;57.10;;;;;;7366900;19;20005;-75
2022/07/24 04:06:17;;;;;;;17.92;9.07;;;23.80;57.10;;;;;;7388431;19;20022;-75
2022/07/24 04:08:47;;;;;;;13.30;8.88;;;23.80;57.00;;;;;;7369670;19;20395;-75
2022/07/24 04:11:16;;;;;;;14.48;9.30;;;23.80;57.00;;;;;;7370186;19;20053;-76
2022/07/24 04:13:44;;;;;;;12.90;8.48;;;23.80;57.20;;;;;;7370379;19;20024;-76
2022/07/24 04:16:16;;;;;;;15.80;8.15;;;23.80;57.10;;;;;;7369924;19;20052;-75
2022/07/24 04:18:44;;;;;;;;;;;23.80;57.00;;;;;;7364272;19;20023;-76
2022/07/24 04:21:13;;;;;;;12.02;8.35;;;23.80;56.80;;;;;;7389939;19;19997;-76
2022/07/24 04:23:42;;;;;;;10.77;8.38;;;23.80;56.70;;;;;;7368402;19;20146;-76
2022/07/24 04:26:11;;;;;;;11.35;8.38;;;23.80;56.70;;;;;;7368578;19;20314;-76
2022/07/24 04:28:41;;;;;;;15.50;8.43;;;23.80;56.70;;;;;;7369049;19;20110;-76
2022/07/24 04:31:10;;;;;;;14.35;8.82;;;23.70;56.90;;;;;;7368197;19;20470;-76
2022/07/24 04:33:42;;;;;;;13.55;8.45;;;23.70;57.00;;;;;;7390041;19;20022;-76
2022/07/24 04:36:10;;;;;;;;;;;23.70;57.10;;;;;;7367815;19;20023;-75
2022/07/24 04:38:39;;;;;;;14.98;8.63;;;23.70;57.30;;;;;;7367289;19;19979;-75
2022/07/24 04:41:08;;;;;;;12.15;9.50;;;23.70;57.40;;;;;;7369292;19;20019;-75
2022/07/24 04:43:36;;;;;;;11.52;8.68;;;23.70;57.60;;;;;;7367647;19;20446;-75
2022/07/24 04:46:05;;;;;;;13.05;8.85;;;23.60;57.70;;;;;;7367436;19;20090;-74
2022/07/24 04:48:35;;;;;;;12.65;8.63;;;23.60;57.80;;;;;;7388915;19;20090;-74
2022/07/24 04:51:06;;;;;;;12.02;9.10;;;23.60;57.70;;;;;;7364500;19;20014;-74
2022/07/24 04:53:35;;;;;;;12.82;8.93;;;23.60;57.50;;;;;;7369773;19;20021;-74
2022/07/24 04:56:04;;;;;;;12.85;9.05;;;23.60;57.50;;;;;;7367679;19;20093;-74
2022/07/24 04:58:33;;;;;;;13.73;8.38;;;23.60;57.60;;;;;;7367891;19;20382;-74
2022/07/24 05:01:01;;;;;;;12.68;8.70;;;23.60;57.60;;;;;;7365093;19;20038;-75
2022/07/24 05:03:30;;;;;;;10.60;8.93;;;23.60;57.80;;;;;;7387271;19;20050;-75
2022/07/24 05:05:59;;;;;;;12.60;8.45;;;23.60;57.90;;;;;;7367333;19;20089;-75
2022/07/24 05:08:30;;;;;;;13.55;8.40;;;23.60;57.90;;;;;;7366960;19;20046;-75
2022/07/24 05:10:59;;;;;;;14.30;8.38;;;23.60;57.70;;;;;;7369411;19;20330;-74
2022/07/24 05:13:28;;;;;;;15.02;8.68;;;23.60;57.60;;;;;;7373076;19;20312;-75
2022/07/24 05:15:57;;;;;;;13.77;8.75;;;23.70;57.60;;;;;;7370398;19;20442;-74
2022/07/24 05:18:26;;;;;;;12.35;9.45;;;23.70;57.70;;;;;;7392882;19;20022;-74
2022/07/24 05:20:54;;;;;;;11.50;9.25;;;23.70;57.80;;;;;;7373240;19;20090;-75
2022/07/24 05:23:26;;;;;;;12.50;9.40;;;23.80;58.00;;;;;;7373817;19;20102;-75
2022/07/24 05:25:58;;;;;;;15.13;9.48;;;23.70;58.20;;;;;;7374701;19;20017;-74
2022/07/24 05:28:26;;;;;;;;;;;23.80;58.30;;;;;;7376191;19;20093;-75
2022/07/24 05:30:55;;;;;;;12.30;9.63;;;23.80;58.40;;;;;;7373648;19;19922;-75
2022/07/24 05:33:23;;;;;;;12.68;8.90;;;23.80;59.00;;;;;;7395170;19;20321;-75
2022/07/24 05:35:52;;;;;;;13.38;9.60;;;23.80;58.50;;;;;;7374088;19;20018;-75
2022/07/24 05:38:21;;;;;;;13.40;9.70;;;23.80;58.60;;;;;;7371158;19;20021;-75
2022/07/24 05:40:50;;;;;;;12.75;9.85;;;23.80;58.60;;;;;;7372543;19;20018;-75
2022/07/24 05:43:21;;;;;;;17.75;10.25;;;23.90;58.60;;;;;;7374485;19;20110;-75
2022/07/24 05:45:49;;;;;;;;;;;23.90;58.60;;;;;;7372629;19;20415;-75
2022/07/24 05:48:18;;;;;;;18.10;10.43;;;24.00;58.80;;;;;;7395474;19;19947;-75
2022/07/24 05:50:47;;;;;;;19.38;9.98;;;24.00;58.60;;;;;;7371304;19;20505;-75
2022/07/24 05:53:15;;;;;;;16.70;9.90;;;24.00;58.70;;;;;;7372297;19;20163;-75
2022/07/24 05:55:44;;;;;;;13.65;9.93;;;24.00;58.80;;;;;;7372104;19;20020;-75
2022/07/24 05:58:13;;;;;;;13.80;9.52;;;24.10;58.90;;;;;;7373550;19;20088;-75
2022/07/24 06:00:45;;;;;;;11.85;9.60;;;24.10;59.10;;;;;;7372266;19;20022;-75
2022/07/24 06:03:17;;;;;;;12.63;9.05;;;24.10;59.10;;;;;;7396090;19;20098;-75
2022/07/24 06:05:45;;;;;;;12.88;9.27;;;24.20;59.30;;;;;;7369662;19;20014;-76
2022/07/24 06:08:14;;;;;;;14.05;9.32;;;24.30;59.40;;;;;;7370632;19;20097;-75
2022/07/24 06:10:43;;;;;;;17.20;8.85;;;24.30;59.50;;;;;;7370903;19;20042;-76
2022/07/24 06:13:11;;;;;;;16.08;9.07;;;24.30;59.50;;;;;;7373256;19;20027;-75
2022/07/24 06:15:40;;;;;;;15.60;8.77;;;24.40;59.50;;;;;;7388352;19;20086;-76
2022/07/24 06:18:12;;;;;;;13.63;8.77;;;24.40;59.50;;;;;;7393415;19;20025;-75
2022/07/24 06:20:40;;;;;;;;;;;24.50;59.60;;;;;;7373496;19;20022;-75
2022/07/24 06:23:09;;;;;;;12.93;9.05;;;24.60;59.50;;;;;;7365887;19;20030;-75
2022/07/24 06:25:38;;;;;;;13.40;9.40;;;24.70;59.10;;;;;;7370457;19;20031;-75
2022/07/24 06:28:07;;;;;;;17.77;10.75;;;24.70;58.80;;;;;;7372534;19;20125;-75
2022/07/24 06:30:35;;;;;;;17.08;10.52;;;24.80;58.50;;;;;;7393593;19;20014;-75
2022/07/24 06:33:04;;;;;;;14.75;10.25;;;24.80;58.70;;;;;;7370637;19;20057;-75
2022/07/24 06:35:35;;;;;;;15.82;11.02;;;24.90;58.10;;;;;;7373516;19;20027;-75
2022/07/24 06:38:04;;;;;;;19.33;11.30;;;24.90;58.00;;;;;;7369094;19;20505;-75
2022/07/24 06:40:34;;;;;;;18.00;11.52;;;25.10;57.90;;;;;;7368454;19;20097;-75
2022/07/24 06:43:02;;;;;;;15.70;10.23;;;25.10;57.70;;;;;;7370580;19;20073;-76
2022/07/24 06:45:32;;;;;;;17.40;11.00;;;25.20;57.60;;;;;;7392918;19;20078;-75
2022/07/24 06:48:01;;;;;;;26.52;11.40;;;25.20;57.50;;;;;;7372490;19;20330;-75
2022/07/24 06:50:30;;;;;;;18.52;11.73;;;25.20;57.60;;;;;;7371981;19;20694;-75
2022/07/24 06:53:02;;;;;;;15.93;10.15;;;25.20;57.50;;;;;;7370406;19;20017;-75
2022/07/24 06:55:30;;;;;;;15.23;10.02;;;25.20;57.40;;;;;;7369895;19;20021;-75
2022/07/24 06:57:59;;;;;;;13.70;10.30;;;25.30;58.10;;;;;;7372001;19;20400;-75
2022/07/24 07:00:28;;;;;;;15.40;10.32;;;25.40;57.40;;;;;;7388109;19;20329;-75
2022/07/24 07:02:57;;;;;;;17.20;10.68;;;25.40;57.30;;;;;;7370456;19;20089;-75
2022/07/24 07:05:26;;;;;;;20.02;10.77;;;25.50;57.20;;;;;;7371495;19;20645;-75
2022/07/24 07:07:55;;;;;;;16.38;10.60;;;25.50;57.10;;;;;;7370626;19;20014;-75
2022/07/24 07:10:26;;;;;;;19.23;11.57;;;25.60;57.20;;;;;;7370952;19;20019;-75
2022/07/24 07:12:54;;;;;;;;;;;25.60;57.00;;;;;;7369156;19;20093;-75
2022/07/24 07:15:24;;;;;;;16.65;10.85;;;25.70;57.10;;;;;;7391520;19;19925;-75
2022/07/24 07:17:52;;;;;;;15.00;10.93;;;25.70;57.00;;;;;;7371329;19;20011;-75
2022/07/24 07:20:21;;;;;;;24.05;10.95;;;25.70;57.60;;;;;;7368465;19;20318;-75
2022/07/24 07:22:50;;;;;;;18.80;11.18;;;25.70;56.90;;;;;;7369083;19;20014;-75
2022/07/24 07:25:19;;;;;;;18.15;11.82;;;25.80;56.90;;;;;;7369864;19;20102;-76
2022/07/24 07:27:52;;;;;;;18.77;11.70;;;25.80;56.80;;;;;;7370588;19;20750;-75
2022/07/24 07:30:21;;;;;;;18.63;12.00;;;25.80;56.90;;;;;;7389097;19;20089;-75
2022/07/24 07:32:50;;;;;;;19.13;12.38;;;25.90;56.80;;;;;;7367841;19;20015;-75
2022/07/24 07:35:19;;;;;;;16.45;11.20;;;25.90;56.60;;;;;;7369382;19;20031;-75
2022/07/24 07:37:48;;;;;;;18.05;12.05;;;25.90;56.50;;;;;;7369273;19;20065;-75
2022/07/24 07:40:17;;;;;;;18.00;11.23;;;25.90;56.20;;;;;;7368420;19;20014;-75
2022/07/24 07:42:46;;;;;;;19.08;11.45;;;26.00;56.30;;;;;;7371594;19;20025;-75
2022/07/24 07:45:17;;;;;;;19.27;11.68;;;26.00;56.10;;;;;;7392305;19;20023;-75
2022/07/24 07:47:46;;;;;;;18.38;11.38;;;26.00;56.20;;;;;;7368166;19;20102;-74
2022/07/24 07:50:15;;;;;;;15.80;10.73;;;26.00;56.10;;;;;;7366938;19;20092;-74
2022/07/24 07:52:44;;;;;;;18.10;11.55;;;26.00;56.30;;;;;;7369066;19;20430;-75
2022/07/24 07:55:14;;;;;;;15.13;10.35;;;26.00;56.30;;;;;;7366796;19;20102;-75
2022/07/24 07:57:43;;;;;;;16.98;10.75;;;26.10;56.40;;;;;;7368558;19;20090;-75
2022/07/24 08:00:13;;;;;;;14.77;10.75;;;26.10;56.20;;;;;;7389093;19;20024;-75
2022/07/24 08:02:44;;;;;;;16.33;10.63;;;26.10;56.30;;;;;;7369286;19;20470;-75
2022/07/24 08:05:14;;;;;;;15.00;10.48;;;26.20;56.40;;;;;;7370270;19;20029;-75
2022/07/24 08:07:42;;;;;;;14.00;10.70;;;26.20;56.30;;;;;;7369458;19;20096;-75
2022/07/24 08:10:11;;;;;;;13.75;9.70;;;26.30;56.40;;;;;;7365716;19;20115;-75
2022/07/24 08:12:40;;;;;;;11.70;9.52;;;26.30;56.30;;;;;;7384171;19;20924;-76
2022/07/24 08:15:10;;;;;;;17.63;10.15;;;26.30;55.60;;;;;;7390109;19;20029;-75
2022/07/24 08:17:39;;;;;;;13.93;9.45;;;26.40;55.20;;;;;;7367904;19;20526;-74
2022/07/24 08:20:12;;;;;;;15.82;9.45;;;26.40;55.20;;;;;;7368359;19;20392;-75
2022/07/24 08:22:41;;;;;;;12.13;9.40;;;26.40;55.50;;;;;;7369434;19;20015;-74
2022/07/24 08:25:10;;;;;;;14.65;9.98;;;26.50;55.50;;;;;;7369121;19;20052;-74
2022/07/24 08:27:39;;;;;;;13.13;10.07;;;26.50;55.20;;;;;;7388060;19;20098;-74
2022/07/24 08:30:10;;;;;;;15.20;9.60;;;26.50;55.00;;;;;;7368435;19;20016;-74
2022/07/24 08:32:39;;;;;;;14.75;10.20;;;26.50;55.20;;;;;;7365361;19;20077;-74
2022/07/24 08:35:11;;;;;;;15.90;9.75;;;26.60;55.20;;;;;;7364040;19;20015;-75
2022/07/24 08:37:41;;;;;;;13.55;8.85;;;26.60;55.00;;;;;;7368758;19;20019;-75
2022/07/24 08:40:11;;;;;;;15.45;8.90;;;26.60;54.80;;;;;;7366929;19;20062;-74
2022/07/24 08:42:40;;;;;;;11.23;7.95;;;26.60;54.30;;;;;;7386826;19;20042;-75
2022/07/24 08:45:10;;;;;;;10.50;8.48;;;26.70;54.10;;;;;;7390010;19;20017;-74
2022/07/24 08:47:45;;;;;;;14.38;9.18;;;26.70;53.70;;;;;;7374393;19;20017;-74
2022/07/24 08:50:16;;;;;;;10.65;8.35;;;26.70;53.60;;;;;;7373444;19;20031;-74
2022/07/24 08:52:46;;;;;;;11.43;8.48;;;26.70;53.20;;;;;;7373676;19;20117;-74
2022/07/24 08:55:15;;;;;;;10.45;7.00;;;26.70;53.10;;;;;;7375101;19;20018;-75
2022/07/24 08:57:44;;;;;;;14.52;7.03;;;26.80;52.70;;;;;;7374119;19;20026;-74
2022/07/24 09:00:14;;;;;;;9.40;6.32;;;26.80;52.10;;;;;;7396307;19;20735;-74
2022/07/24 09:02:43;;;;;;;8.35;6.10;;;26.80;51.20;;;;;;7374860;19;20023;-74
2022/07/24 09:05:12;;;;;;;9.35;6.60;;;26.90;50.40;;;;;;7373249;19;20015;-74
2022/07/24 09:07:43;;;;;;;8.07;4.88;;;26.90;50.20;;;;;;7374788;19;20027;-74
2022/07/24 09:10:14;;;;;;;9.82;5.20;;;26.90;49.40;;;;;;7373495;19;20043;-74
2022/07/24 09:12:45;;;;;;;5.82;4.22;;;26.90;49.10;;;;;;7371561;19;20032;-74
2022/07/24 09:15:15;;;;;;;9.25;5.20;;;26.90;48.90;;;;;;7395299;19;20615;-74
2022/07/24 09:17:52;;;;;;;9.10;5.20;;;26.90;48.50;;;;;;7373232;19;20032;-78
2022/07/24 09:20:22;;;;;;;7.90;4.55;;;27.00;48.20;;;;;;7373653;19;20118;-76
2022/07/24 09:22:53;;;;;;;6.63;4.85;;;27.00;48.30;;;;;;7375361;19;20022;-76
2022/07/24 09:25:24;;;;;;;10.25;5.03;;;27.00;48.20;;;;;;7378658;19;20089;-78
2022/07/24 09:27:54;;;;;;;5.53;4.85;;;26.90;48.30;;;;;;7377930;19;20066;-75
2022/07/24 09:30:31;;;;;;;6.23;4.83;;;27.00;48.40;;;;;;7395715;19;20022;-78
2022/07/24 09:33:02;;;;;;;6.78;4.80;;;26.90;48.10;;;;;;7371126;19;20018;-78
2022/07/24 09:35:36;;;;;;;5.70;4.32;;;27.00;48.10;;;;;;7374644;19;20014;-76
2022/07/24 09:38:09;;;;;;;7.10;5.10;;;27.10;47.60;;;;;;7376587;19;20015;-76
2022/07/24 09:40:39;;;;;;;5.97;4.47;;;27.20;47.80;;;;;;7372053;19;20018;-76
2022/07/24 09:43:20;;;;;;;4.83;4.17;;;27.20;47.70;;;;;;7374496;19;20532;-76
2022/07/24 09:46:01;;;;;;;7.53;4.15;;;27.30;47.10;;;;;;7371271;19;20267;-76
2022/07/24 09:48:32;;;;;;;5.60;4.35;;;27.20;46.90;;;;;;7393505;19;20014;-78
2022/07/24 09:51:02;;;;;;;6.68;4.60;;;27.30;46.80;;;;;;7372117;19;20014;-77
2022/07/24 09:53:36;;;;;;;5.25;4.25;;;27.20;46.60;;;;;;7373242;19;20070;-76
2022/07/24 09:56:08;;;;;;;7.03;4.20;;;27.30;46.10;;;;;;7369995;19;20014;-77
2022/07/24 09:58:38;;;;;;;9.75;4.90;;;27.20;46.20;;;;;;7371454;19;20021;-76
2022/07/24 10:01:11;;;;;;;5.28;4.38;;;27.20;46.80;;;;;;7369033;19;20015;-76
2022/07/24 10:03:42;;;;;;;5.40;4.78;;;27.30;47.00;;;;;;7392355;19;20018;-77
2022/07/24 10:06:12;;;;;;;6.68;4.63;;;27.40;47.10;;;;;;7374060;19;20019;-77
2022/07/24 10:08:46;;;;;;;6.57;5.00;;;27.60;47.20;;;;;;7370247;19;20144;-76
2022/07/24 10:11:16;;;;;;;6.88;4.65;;;27.50;46.90;;;;;;7370710;19;20355;-77
2022/07/24 10:13:46;;;;;;;5.53;4.00;;;27.50;46.30;;;;;;7372566;19;20014;-76
2022/07/24 10:16:33;;;;;;;7.45;4.22;;;27.60;45.90;;;;;;7371678;19;20121;-75
2022/07/24 10:19:03;;;;;;;6.97;4.53;;;27.60;45.50;;;;;;7372973;19;20004;-75
2022/07/24 10:21:34;;;;;;;6.57;4.40;;;27.70;45.80;;;;;;7390824;19;20090;-76
2022/07/24 10:24:47;;;;;;;5.17;4.10;;;27.70;46.30;;;;;;7371950;19;20044;-76
2022/07/24 10:27:27;;;;;;;5.82;3.67;;;27.70;45.90;;;;;;7370285;19;20458;-76
2022/07/24 10:29:57;;;;;;;3.38;3.08;;;27.80;44.40;;;;;;7368134;19;20010;-77
2022/07/24 10:32:27;;;;;;;6.97;3.88;;;27.80;42.50;;;;;;7370213;19;20081;-77
2022/07/24 10:35:05;;;;;;;4.30;3.90;;;27.80;43.80;;;;;;7365009;19;20038;-76
2022/07/24 10:37:41;;;;;;;8.90;4.20;;;27.90;44.70;;;;;;7367126;19;20090;-77
2022/07/24 10:40:21;;;;;;;5.80;4.30;;;27.90;44.40;;;;;;7368440;19;20090;-76
2022/07/24 10:43:17;;;;;;;6.20;4.32;;;28.00;44.30;;;;;;7368349;19;20018;-77
2022/07/24 10:45:49;;;;;;;5.75;4.10;;;28.00;42.80;;;;;;7366326;19;20018;-78
2022/07/24 10:48:30;;;;;;;7.43;4.10;;;28.10;42.90;;;;;;7391430;19;20053;-77
2022/07/24 10:51:13;;;;;;;4.35;3.83;;;28.20;43.20;;;;;;7368260;19;20049;-78
2022/07/24 10:53:51;;;;;;;5.45;3.97;;;28.20;43.30;;;;;;7371541;19;20129;-78
2022/07/24 10:56:23;;;;;;;4.55;3.65;;;28.30;42.80;;;;;;7366907;19;20023;-78
2022/07/24 10:59:07;;;;;;;5.85;3.80;;;28.40;42.10;;;;;;7367271;19;20019;-79
2022/07/24 11:01:39;;;;;;;4.50;3.78;;;28.50;42.50;;;;;;7368906;19;20090;-79
2022/07/24 11:04:30;;;;;;;8.32;3.80;;;28.60;43.00;;;;;;7369123;19;20035;-78
2022/07/24 11:07:02;;;;;;;6.15;3.30;;;28.50;42.60;;;;;;7371494;19;20162;-77
2022/07/24 11:09:31;;;;;;;4.88;3.72;;;28.70;40.80;;;;;;7391201;19;20106;-77
2022/07/24 11:12:09;;;;;;;4.65;4.07;;;28.60;40.90;;;;;;7370523;19;20011;-77
2022/07/24 11:14:53;;;;;;;8.88;5.72;;;28.70;41.00;;;;;;7371177;19;20021;-78
2022/07/24 11:17:41;;;;;;;3.78;3.47;;;28.80;41.30;;;;;;7369080;19;20032;-78
2022/07/24 11:20:11;;;;;;;4.80;3.83;;;28.90;40.90;;;;;;7372754;19;20026;-78
2022/07/24 11:22:43;;;;;;;6.77;3.60;;;29.00;41.60;;;;;;7366896;19;20014;-77
2022/07/24 11:25:15;;;;;;;4.90;3.28;;;29.00;41.70;;;;;;7371823;19;20014;-77
2022/07/24 11:28:16;;;;;;;6.53;3.47;;;29.10;40.50;;;;;;7370886;19;20386;-76
2022/07/24 11:30:48;;;;;;;;;;;29.10;41.30;;;;;;7371170;19;20047;-76
2022/07/24 11:33:23;;;;;;;4.53;3.63;;;29.30;40.20;;;;;;7390508;19;20054;-76
2022/07/24 11:35:52;;;;;;;4.95;3.42;;;29.20;40.60;;;;;;7366174;19;20160;-76
2022/07/24 11:38:21;;;;;;;4.88;3.20;;;29.30;40.20;;;;;;7370180;19;20014;-76
2022/07/24 11:40:50;;;;;;;4.22;3.13;;;29.30;39.20;;;;;;7370697;19;20022;-76
2022/07/24 11:43:18;;;;;;;3.65;3.20;;;29.40;38.40;;;;;;7371108;19;20014;-76
2022/07/24 11:45:56;;;;;;;4.85;3.20;;;29.40;38.60;;;;;;7370211;19;20089;-77
2022/07/24 11:48:25;;;;;;;6.85;3.50;;;29.40;38.70;;;;;;7389113;19;20472;-77
2022/07/24 11:51:06;;;;;;;3.90;3.50;;;29.50;39.20;;;;;;7368194;19;20021;-76
2022/07/24 11:53:35;;;;;;;3.60;3.30;;;29.60;40.20;;;;;;7367988;19;20018;-76
2022/07/24 11:56:05;;;;;;;4.38;3.83;;;29.60;40.30;;;;;;7367902;19;20662;-77
2022/07/24 11:58:40;;;;;;;6.35;3.58;;;29.70;40.60;;;;;;7371333;19;20069;-76
2022/07/24 12:01:24;;;;;;;5.10;3.35;;;29.70;40.50;;;;;;7369375;19;20110;-76
2022/07/24 12:03:53;;;;;;;5.38;3.67;;;29.80;40.60;;;;;;7370526;19;20042;-77
2022/07/24 12:06:23;;;;;;;6.30;3.28;;;29.80;40.80;;;;;;7391096;19;20051;-77
2022/07/24 12:08:51;;;;;;;7.72;3.60;;;29.80;39.50;;;;;;7368623;19;20129;-77
2022/07/24 12:11:23;;;;;;;5.88;3.65;;;29.90;39.10;;;;;;7368076;19;20014;-77
2022/07/24 12:13:53;;;;;;;4.25;3.15;;;29.90;39.10;;;;;;7366551;19;20202;-77
2022/07/24 12:16:33;;;;;;;4.78;3.30;;;29.80;39.20;;;;;;7368752;19;20042;-77
2022/07/24 12:19:16;;;;;;;4.40;3.92;;;29.90;39.50;;;;;;7366500;19;20035;-78
2022/07/24 12:21:45;;;;;;;6.90;4.25;;;30.00;39.70;;;;;;7369620;19;20030;-80
2022/07/24 12:24:16;;;;;;;3.65;3.17;;;30.10;39.70;;;;;;7388929;19;20051;-79
2022/07/24 12:26:56;;;;;;;6.13;3.33;;;30.10;38.90;;;;;;7368653;19;20019;-78
2022/07/24 12:29:27;;;;;;;6.95;3.60;;;30.10;38.80;;;;;;7368785;19;20023;-81
2022/07/24 12:32:15;;;;;;;;;;;30.20;39.20;;;;;;7367533;19;20296;-77
2022/07/24 12:34:44;;;;;;;3.97;3.60;;;30.10;39.80;;;;;;7367838;19;20279;-77
2022/07/24 12:37:23;;;;;;;6.53;3.92;;;30.20;39.30;;;;;;7369436;19;20072;-81
2022/07/24 12:39:53;;;;;;;6.85;3.53;;;30.30;39.00;;;;;;7368489;19;20098;-81
2022/07/24 12:42:33;;;;;;;6.77;3.10;;;30.40;39.40;;;;;;7390139;19;20093;-80
2022/07/24 12:45:10;;;;;;;4.68;3.95;;;30.40;38.70;;;;;;7368851;19;20043;-78
2022/07/24 12:48:09;;;;;;;5.82;3.70;;;30.60;38.70;;;;;;7369559;19;20014;-79
2022/07/24 12:50:41;;;;;;;5.53;3.67;;;30.60;38.60;;;;;;7366799;19;20010;-80
2022/07/24 12:53:11;;;;;;;5.10;3.90;;;30.70;38.30;;;;;;7368736;19;20063;-79
2022/07/24 12:55:40;;;;;;;4.88;3.83;;;30.70;38.60;;;;;;7365553;19;20349;-80
2022/07/24 12:58:09;;;;;;;6.43;3.53;;;30.90;39.00;;;;;;7368350;19;20014;-80
2022/07/24 13:00:38;;;;;;;7.78;3.63;;;30.90;38.90;;;;;;7389475;19;20334;-80